Thrali, Washington
Current Conditions -  °F | °C
As of 11:53 PM on Wednesday 22 Oct 2014 (Local Time) from KELN Reporting Station
Overcast Overcast  
Wind Chill: 52°   Ceiling: 6000
Heat Index: 52°   Visibility: 10mi
Dew Point: 47°   Wind: 8mph
Humidity: 83%   Direction: 310°NW
Pressure: 29.69"   Gusts: NA
Location:  47.0155°N, 120.311°W
Report Text: KELN 230653Z AUTO 31007KT 10SM FEW047 BKN060 OVC080 11/08 A2969 RMK AO2 RAB39E53 SLP053 P0001 T01110083
Loading
Personal Weather Stations






























Interactive Weather Map
Tropical Storm Tracking
New forecast layout! Learn more

10-Day Weather Forecast

Advertisements
Track Severe Weather on mobile